CDT,Max TemperatureF,Mean TemperatureF,Min TemperatureF,Max Dew PointF,MeanDew PointF,Min DewpointF,Max Humidity, Mean Humidity, Min Humidity, Max Sea Level PressureIn, Mean Sea Level PressureIn, Min Sea Level PressureIn, Max VisibilityMiles, Mean VisibilityMiles, Min VisibilityMiles, Max Wind SpeedMPH, Mean Wind SpeedMPH, Max Gust SpeedMPH,PrecipitationIn, CloudCover, Events, WindDirDegrees
2013-9-1,86,75,63,66,62,55,93,65,37,29.96,29.87,29.78,10,9,5,30,9,40,0.32,2,Rain-Thunderstorm,330
2013-9-2,82,70,57,59,54,49,93,64,34,30.06,30.01,29.96,10,10,10,14,7,20,0.00,0,,2
2013-9-3,85,68,51,56,52,48,96,63,29,30.12,30.07,30.03,10,10,10,8,2,12,0.00,0,,101
2013-9-4,91,74,57,60,56,51,87,60,32,30.17,30.11,30.06,10,10,10,10,4,14,0.00,0,,173
2013-9-5,89,77,65,64,61,56,81,61,40,30.19,30.15,30.12,10,10,10,10,5,12,0.00,0,,248
2013-9-6,91,79,67,61,58,53,73,51,29,30.13,30.06,29.97,10,10,10,15,8,22,0.00,0,,180
2013-9-7,100,85,69,69,64,60,74,53,31,29.96,29.91,29.82,10,10,10,18,8,24,0.00,0,,212
2013-9-8,97,84,71,71,69,64,93,67,40,29.89,29.85,29.79,10,9,4,9,4,12,0.00,0,,81
2013-9-9,98,87,75,70,61,57,74,51,27,29.90,29.84,29.81,10,10,10,24,12,31,0.00,0,,216
2013-9-10,96,83,69,63,61,58,73,51,28,30.01,29.96,29.90,10,10,10,24,12,31,0.00,0,,212
2013-9-11,88,78,67,70,66,63,93,68,43,30.14,30.07,30.02,10,9,1,38,4,56,0.69,4,Rain-Thunderstorm,268
2013-9-12,82,70,58,70,56,41,90,58,25,30.17,30.12,30.06,10,9,2,18,9,24,0.30,3,Rain-Thunderstorm,356
2013-9-13,75,63,50,50,45,40,83,56,29,30.24,30.16,30.10,10,10,10,13,4,16,0.00,0,,58
2013-9-14,77,64,51,47,42,38,64,45,25,30.14,30.05,29.94,10,10,10,15,8,22,0.00,0,,165
2013-9-15,69,62,55,64,57,46,93,71,48,30.21,30.02,29.89,10,9,4,18,9,24,0.17,7,Rain-Thunderstorm,253
2013-9-16,65,58,51,54,52,49,96,82,67,30.35,30.28,30.22,10,9,6,13,7,18,0.00,5,,72
2013-9-17,67,62,57,64,58,52,100,90,80,30.24,30.13,29.98,10,5,1,14,8,22,0.57,8,Rain,144
2013-9-18,89,78,66,69,66,64,93,70,46,29.99,29.87,29.78,10,8,4,25,13,32,0.00,3,,178
2013-9-19,90,77,63,69,65,61,100,74,47,29.90,29.83,29.71,10,9,2,38,10,53,1.07,4,Rain-Thunderstorm,220
2013-9-20,70,62,53,57,49,45,86,64,42,30.02,29.97,29.89,10,10,10,21,11,28,0.00,1,,311
2013-9-21,73,59,44,47,44,41,92,63,33,30.04,29.98,29.92,10,10,8,10,5,13,0.00,0,,320
2013-9-22,76,64,51,52,49,45,77,60,43,29.99,29.94,29.89,10,10,10,15,7,21,0.00,0,,160
2013-9-23,75,64,52,53,48,46,83,61,38,29.96,29.89,29.83,10,10,10,20,9,26,0.00,0,,143
2013-9-24,75,67,58,60,55,50,93,77,61,29.88,29.83,29.80,10,10,10,16,6,22,0.00,4,,95
2013-9-25,78,65,52,62,57,51,93,74,54,29.94,29.87,29.83,10,9,5,13,6,16,0.00,0,,86
2013-9-26,83,72,60,63,60,58,97,70,43,29.93,29.89,29.86,10,8,5,18,9,26,0.00,0,,148
2013-9-27,84,75,65,63,61,59,87,65,43,29.98,29.92,29.87,10,10,10,18,11,26,0.00,0,,155
2013-9-28,70,60,50,65,57,47,93,80,67,30.08,29.91,29.81,10,9,2,24,9,31,0.28,5,Rain-Thunderstorm,242
2013-9-29,72,60,47,50,46,43,93,64,35,30.10,30.04,29.95,10,10,10,13,6,17,0.00,0,,199
2013-9-30,76,63,49,59,51,47,90,64,38,29.94,29.87,29.80,10,10,10,17,10,24,0.00,0,,187